createdAt,value
2022-12-25T00:01:08.128Z,124.63
2022-12-25T00:03:38.290Z,113.43
2022-12-25T00:06:07.189Z,121.75
2022-12-25T00:08:36.655Z,127.88
2022-12-25T00:11:07.645Z,119.90
2022-12-25T00:13:35.419Z,124.57
2022-12-25T00:16:07.011Z,122.25
2022-12-25T00:18:35.263Z,123.70
2022-12-25T00:21:05.102Z,119.07
2022-12-25T00:23:34.099Z,115.90
2022-12-25T00:26:05.988Z,123.90
2022-12-25T00:28:35.996Z,129.32
2022-12-25T00:31:07.869Z,113.38
2022-12-25T00:33:36.970Z,116.15
2022-12-25T00:36:05.994Z,125.57
2022-12-25T00:38:35.436Z,110.20
2022-12-25T00:41:07.174Z,115.07
2022-12-25T00:43:35.562Z,108.93
2022-12-25T00:46:05.440Z,112.40
2022-12-25T00:48:34.537Z,100.40
2022-12-25T00:51:04.979Z,113.03
2022-12-25T00:53:33.138Z,108.77
2022-12-25T00:56:03.442Z,112.18
2022-12-25T00:58:34.426Z,106.88
2022-12-25T01:01:02.735Z,112.20
2022-12-25T01:03:31.677Z,93.20
2022-12-25T01:06:01.203Z,97.10
2022-12-25T01:08:31.466Z,104.50
2022-12-25T01:11:02.758Z,107.57
2022-12-25T01:13:32.830Z,115.10
2022-12-25T01:16:05.910Z,103.53
2022-12-25T01:18:34.091Z,118.72
2022-12-25T01:21:06.441Z,104.78
2022-12-25T01:23:34.160Z,111.07
2022-12-25T01:26:04.300Z,107.80
2022-12-25T01:28:33.792Z,113.05
2022-12-25T01:31:01.600Z,106.88
2022-12-25T01:33:33.929Z,98.90
2022-12-25T01:36:01.673Z,105.07
2022-12-25T01:38:29.490Z,103.20
2022-12-25T01:40:57.615Z,100.32
2022-12-25T01:43:27.970Z,101.47
2022-12-25T01:45:57.820Z,107.82
2022-12-25T01:48:29.403Z,119.32
2022-12-25T01:51:00.735Z,107.03
2022-12-25T01:53:32.193Z,109.97
2022-12-25T01:56:05.346Z,115.70
2022-12-25T01:58:33.455Z,123.75
2022-12-25T02:01:02.651Z,123.25
2022-12-25T02:03:30.869Z,120.80
2022-12-25T02:05:59.752Z,118.85
2022-12-25T02:08:27.501Z,151.77
2022-12-25T02:10:55.437Z,144.25
2022-12-25T02:13:23.216Z,156.38
2022-12-25T02:16:04.997Z,156.15
2022-12-25T02:18:42.276Z,149.00
2022-12-25T02:21:26.720Z,153.10
2022-12-25T02:24:22.377Z,148.50
2022-12-25T02:27:03.939Z,159.70
2022-12-25T02:32:13.388Z,153.20
2022-12-25T02:34:47.964Z,159.85
2022-12-25T02:37:20.130Z,145.40
2022-12-25T02:39:56.279Z,142.40
2022-12-25T02:42:31.021Z,139.02
2022-12-25T02:45:00.462Z,158.68
2022-12-25T02:47:29.116Z,138.23
2022-12-25T02:49:58.254Z,143.80
2022-12-25T02:52:29.857Z,126.93
2022-12-25T02:55:01.781Z,124.57
2022-12-25T02:57:35.417Z,130.73
2022-12-25T03:00:06.643Z,125.65
2022-12-25T03:05:07.065Z,119.00
2022-12-25T03:07:38.521Z,113.80
2022-12-25T03:10:10.536Z,122.60
2022-12-25T03:12:44.871Z,117.07
2022-12-25T03:15:14.236Z,112.18
2022-12-25T03:17:42.717Z,114.18
2022-12-25T03:20:11.442Z,113.68
2022-12-25T03:22:43.004Z,124.35
2022-12-25T03:25:11.330Z,215.00
2022-12-25T03:27:41.596Z,179.60
2022-12-25T03:30:10.528Z,138.68
2022-12-25T03:32:48.260Z,102.68
2022-12-25T03:35:20.857Z,114.95
2022-12-25T03:38:06.942Z,115.57
2022-12-25T03:40:49.116Z,112.45
2022-12-25T03:43:25.800Z,120.25
2022-12-25T03:46:02.261Z,105.70
2022-12-25T03:48:36.385Z,105.85
2022-12-25T03:51:10.423Z,109.95
2022-12-25T03:53:44.526Z,109.55
2022-12-25T03:56:13.762Z,95.38
2022-12-25T03:58:51.517Z,112.63
2022-12-25T04:01:20.416Z,100.72
2022-12-25T04:03:50.350Z,98.43
2022-12-25T04:06:17.992Z,96.22
2022-12-25T04:08:48.613Z,100.93
2022-12-25T04:11:16.282Z,108.45
2022-12-25T04:13:43.846Z,104.97
2022-12-25T04:16:11.583Z,100.55
2022-12-25T04:18:39.705Z,100.72
2022-12-25T04:21:08.770Z,105.55
2022-12-25T04:23:36.952Z,96.43
2022-12-25T04:26:04.715Z,97.25
2022-12-25T04:28:33.155Z,96.93
2022-12-25T04:31:01.514Z,95.18
2022-12-25T04:33:29.412Z,90.95
2022-12-25T04:35:57.413Z,93.55
2022-12-25T04:38:26.557Z,101.50
2022-12-25T04:40:54.585Z,94.47
2022-12-25T04:43:22.301Z,98.00
2022-12-25T04:45:53.075Z,100.20
2022-12-25T04:48:21.216Z,98.72
2022-12-25T04:50:48.964Z,103.68
2022-12-25T04:53:18.188Z,96.63
2022-12-25T04:55:47.353Z,95.47
2022-12-25T04:58:15.048Z,94.25
2022-12-25T05:00:43.397Z,96.50
2022-12-25T05:03:11.318Z,94.18
2022-12-25T05:05:39.987Z,101.40
2022-12-25T05:08:07.822Z,99.07
2022-12-25T05:10:35.660Z,88.88
2022-12-25T05:13:05.304Z,88.18
2022-12-25T05:15:33.057Z,94.60
2022-12-25T05:18:00.740Z,87.10
2022-12-25T05:20:28.391Z,86.88
2022-12-25T05:22:56.170Z,89.75
2022-12-25T05:25:25.377Z,83.45
2022-12-25T05:27:54.115Z,90.70
2022-12-25T05:30:23.499Z,80.45
2022-12-25T05:32:51.480Z,89.07
2022-12-25T05:35:19.097Z,88.55
2022-12-25T05:37:46.841Z,87.82
2022-12-25T05:40:14.594Z,85.50
2022-12-25T05:42:42.518Z,85.22
2022-12-25T05:45:11.365Z,90.60
2022-12-25T05:47:40.868Z,82.82
2022-12-25T05:50:09.203Z,87.78
2022-12-25T05:52:36.986Z,84.82
2022-12-25T05:55:05.639Z,81.95
2022-12-25T05:57:33.344Z,80.78
2022-12-25T06:00:01.336Z,84.65
2022-12-25T06:02:29.599Z,86.15
2022-12-25T06:04:58.723Z,89.72
2022-12-25T06:07:26.872Z,84.97
2022-12-25T06:09:54.649Z,82.70
2022-12-25T06:12:22.223Z,83.18
2022-12-25T06:14:50.469Z,83.60
2022-12-25T06:17:18.721Z,84.85
2022-12-25T06:19:46.259Z,80.10
2022-12-25T06:22:15.745Z,90.53
2022-12-25T06:24:44.790Z,82.97
2022-12-25T06:27:12.336Z,85.05
2022-12-25T06:29:40.223Z,81.90
2022-12-25T06:32:08.601Z,76.70
2022-12-25T06:34:37.178Z,82.43
2022-12-25T06:37:05.144Z,81.22
2022-12-25T06:39:35.010Z,80.15
2022-12-25T06:42:02.677Z,83.53
2022-12-25T06:44:30.556Z,82.68
2022-12-25T06:46:58.689Z,84.28
2022-12-25T06:49:26.651Z,78.15
2022-12-25T06:51:54.398Z,73.05
2022-12-25T06:54:22.218Z,71.57
2022-12-25T06:56:51.256Z,71.25
2022-12-25T06:59:20.282Z,64.65
2022-12-25T07:01:51.141Z,68.40
2022-12-25T07:04:24.208Z,67.20
2022-12-25T07:06:52.584Z,64.65
2022-12-25T07:09:20.413Z,66.70
2022-12-25T07:11:48.154Z,61.85
2022-12-25T07:14:23.770Z,62.10
2022-12-25T07:16:52.560Z,61.83
2022-12-25T07:19:20.353Z,65.65
2022-12-25T07:21:47.917Z,57.10
2022-12-25T07:24:18.918Z,59.28
2022-12-25T07:26:46.617Z,60.50
2022-12-25T07:29:15.769Z,59.50
2022-12-25T07:31:45.460Z,60.97
2022-12-25T07:34:13.252Z,61.30
2022-12-25T07:36:40.949Z,59.28
2022-12-25T07:39:10.654Z,49.95
2022-12-25T07:41:42.594Z,53.70
2022-12-25T07:44:10.377Z,51.20
2022-12-25T07:46:37.997Z,50.63
2022-12-25T07:49:07.285Z,51.70
2022-12-25T07:51:35.005Z,51.35
2022-12-25T07:54:02.709Z,49.17
2022-12-25T07:56:30.695Z,46.90
2022-12-25T07:58:58.601Z,52.28
2022-12-25T08:01:28.931Z,48.83
2022-12-25T08:03:58.493Z,49.97
2022-12-25T08:06:30.620Z,51.75
2022-12-25T08:09:03.781Z,53.13
2022-12-25T08:11:31.687Z,54.05
2022-12-25T08:13:59.368Z,47.65
2022-12-25T08:16:27.456Z,50.83
2022-12-25T08:18:55.259Z,51.15
2022-12-25T08:21:23.515Z,52.53
2022-12-25T08:23:52.689Z,51.45
2022-12-25T08:26:22.041Z,61.58
2022-12-25T08:28:50.283Z,53.50
2022-12-25T08:31:20.393Z,52.25
2022-12-25T08:33:49.419Z,50.15
2022-12-25T08:36:17.798Z,45.30
2022-12-25T08:38:46.302Z,47.28
2022-12-25T08:41:16.427Z,45.35
2022-12-25T08:43:44.291Z,45.92
2022-12-25T08:46:13.494Z,45.35
2022-12-25T08:48:44.349Z,46.85
2022-12-25T08:51:13.845Z,50.25
2022-12-25T08:53:42.735Z,47.08
2022-12-25T08:56:10.705Z,49.65
2022-12-25T08:58:40.172Z,48.40
2022-12-25T09:01:08.232Z,43.10
2022-12-25T09:03:36.056Z,47.70
2022-12-25T09:06:05.791Z,46.78
2022-12-25T09:08:34.570Z,49.58
2022-12-25T09:11:03.228Z,51.17
2022-12-25T09:13:31.687Z,48.17
2022-12-25T09:16:05.385Z,45.90
2022-12-25T09:18:34.034Z,48.00
2022-12-25T09:21:03.247Z,48.47
2022-12-25T09:23:31.226Z,49.00
2022-12-25T09:26:00.060Z,50.20
2022-12-25T09:28:27.696Z,48.33
2022-12-25T09:30:55.924Z,49.90
2022-12-25T09:33:29.177Z,54.10
2022-12-25T09:35:58.374Z,49.13
2022-12-25T09:38:26.524Z,50.92
2022-12-25T09:41:01.371Z,54.33
2022-12-25T09:43:33.355Z,53.28
2022-12-25T09:46:04.330Z,56.28
2022-12-25T09:48:35.660Z,55.65
2022-12-25T09:51:08.564Z,52.63
2022-12-25T09:53:39.683Z,56.42
2022-12-25T09:56:12.870Z,53.20
2022-12-25T09:58:40.685Z,52.42
2022-12-25T10:01:19.140Z,54.47
2022-12-25T10:04:02.446Z,56.88
2022-12-25T10:06:37.118Z,57.40
2022-12-25T10:09:30.342Z,53.45
2022-12-25T10:12:13.062Z,57.95
2022-12-25T10:14:49.637Z,54.67
2022-12-25T10:17:32.295Z,61.55
2022-12-25T10:20:08.127Z,58.92
2022-12-25T10:22:40.748Z,54.08
2022-12-25T10:25:16.893Z,57.28
2022-12-25T10:27:45.328Z,58.42
2022-12-25T10:30:18.880Z,54.08
2022-12-25T10:32:47.665Z,57.05
2022-12-25T10:35:18.678Z,59.38
2022-12-25T10:37:53.577Z,55.78
2022-12-25T10:40:31.166Z,56.42
2022-12-25T10:43:07.092Z,57.60
2022-12-25T10:45:43.810Z,56.70
2022-12-25T10:48:20.310Z,61.53
2022-12-25T10:50:49.758Z,55.55
2022-12-25T10:53:22.362Z,57.45
2022-12-25T10:55:58.571Z,69.30
2022-12-25T10:58:26.604Z,53.67
2022-12-25T11:00:58.175Z,55.35
2022-12-25T11:05:58.353Z,57.05
2022-12-25T11:08:28.846Z,57.42
2022-12-25T11:10:58.530Z,65.78
2022-12-25T11:13:28.509Z,68.50
2022-12-25T11:16:05.813Z,65.53
2022-12-25T11:18:36.279Z,61.15
2022-12-25T11:21:16.461Z,52.63
2022-12-25T11:23:47.283Z,54.75
2022-12-25T11:26:16.784Z,58.28
2022-12-25T11:28:46.063Z,49.97
2022-12-25T11:31:16.627Z,51.38
2022-12-25T11:33:49.669Z,57.00
2022-12-25T11:36:24.506Z,55.63
2022-12-25T11:38:52.354Z,52.72
2022-12-25T11:41:24.846Z,50.15
2022-12-25T11:43:56.388Z,49.03
2022-12-25T11:46:29.268Z,42.83
2022-12-25T11:49:01.551Z,46.20
2022-12-25T11:51:33.748Z,48.92
2022-12-25T11:54:13.186Z,50.88
2022-12-25T11:56:40.960Z,45.30
2022-12-25T11:59:20.505Z,49.45
2022-12-25T12:01:52.264Z,46.53
2022-12-25T12:04:30.027Z,49.20
2022-12-25T12:07:08.316Z,52.42
2022-12-25T12:09:45.013Z,45.10
2022-12-25T12:12:19.439Z,44.13
2022-12-25T12:14:53.010Z,46.78
2022-12-25T12:17:20.888Z,43.90
2022-12-25T12:19:48.736Z,43.92
2022-12-25T12:22:22.548Z,46.38
2022-12-25T12:24:56.066Z,43.08
2022-12-25T12:27:28.053Z,48.55
2022-12-25T12:29:57.560Z,45.30
2022-12-25T12:32:39.399Z,49.40
2022-12-25T12:35:14.603Z,44.50
2022-12-25T12:37:45.704Z,47.72
2022-12-25T12:40:36.104Z,47.28
2022-12-25T12:43:06.110Z,51.85
2022-12-25T12:45:37.664Z,55.35
2022-12-25T12:48:14.940Z,57.72
2022-12-25T12:50:43.456Z,60.38
2022-12-25T12:53:28.621Z,57.75
2022-12-25T12:55:56.513Z,59.83
2022-12-25T12:58:30.359Z,78.85
2022-12-25T13:01:09.341Z,46.50
2022-12-25T13:04:05.742Z,49.20
2022-12-25T13:06:41.480Z,44.65
2022-12-25T13:09:26.985Z,43.63
2022-12-25T13:11:57.286Z,46.50
2022-12-25T13:14:25.384Z,43.08
2022-12-25T13:16:54.872Z,45.72
2022-12-25T13:19:25.446Z,47.22
2022-12-25T13:21:54.366Z,49.80
2022-12-25T13:24:28.232Z,43.92
2022-12-25T13:26:56.225Z,50.15
2022-12-25T13:29:29.443Z,41.30
2022-12-25T13:31:58.218Z,45.17
2022-12-25T13:34:31.347Z,49.40
2022-12-25T13:37:00.340Z,48.70
2022-12-25T13:39:29.436Z,50.22
2022-12-25T13:41:57.236Z,47.28
2022-12-25T13:44:28.684Z,49.42
2022-12-25T13:46:56.424Z,45.83
2022-12-25T13:49:24.795Z,58.35
2022-12-25T13:51:52.588Z,51.33
2022-12-25T13:54:20.466Z,45.40
2022-12-25T13:56:55.554Z,52.80
2022-12-25T13:59:25.458Z,45.78
2022-12-25T14:01:53.654Z,50.45
2022-12-25T14:04:24.438Z,51.10
2022-12-25T14:06:52.951Z,50.13
2022-12-25T14:09:20.920Z,51.40
2022-12-25T14:11:52.408Z,52.88
2022-12-25T14:16:51.071Z,45.67
2022-12-25T14:19:27.585Z,58.10
2022-12-25T14:22:00.239Z,53.28
2022-12-25T14:24:30.078Z,50.60
2022-12-25T14:27:02.649Z,46.03
2022-12-25T14:29:35.015Z,42.95
2022-12-25T14:32:07.513Z,43.58
2022-12-25T18:00:55.649Z,34.30
2022-12-25T18:03:25.301Z,35.28
2022-12-25T18:06:00.053Z,38.85
2022-12-25T18:08:37.000Z,37.72
2022-12-25T18:11:10.066Z,37.28
2022-12-25T18:13:38.282Z,36.90
2022-12-25T18:16:08.331Z,36.78
2022-12-25T18:18:36.524Z,40.08
2022-12-25T18:21:05.151Z,38.33
2022-12-25T18:23:33.560Z,41.30
2022-12-25T18:26:02.315Z,39.60
2022-12-25T18:28:30.352Z,39.72
2022-12-25T18:31:21.645Z,42.15
2022-12-25T18:33:50.454Z,43.60
2022-12-25T18:40:12.688Z,41.90
2022-12-25T18:42:40.551Z,51.08
2022-12-25T18:45:10.971Z,49.65
2022-12-25T18:47:40.959Z,40.40
2022-12-25T18:50:09.342Z,42.47
2022-12-25T18:52:49.079Z,37.33
2022-12-25T18:55:22.280Z,38.25
2022-12-25T18:57:50.042Z,39.40
2022-12-25T19:00:18.329Z,38.03
2022-12-25T19:02:49.120Z,63.35
2022-12-25T19:05:19.155Z,49.80
2022-12-25T19:07:49.399Z,44.88
2022-12-25T19:10:17.125Z,75.22
2022-12-25T19:12:44.785Z,39.13
2022-12-25T19:15:12.716Z,35.67
2022-12-25T19:17:40.368Z,42.55
2022-12-25T19:20:13.352Z,37.38
2022-12-25T19:22:41.854Z,36.90
2022-12-25T19:25:10.794Z,37.08
2022-12-25T19:27:39.061Z,39.05
2022-12-25T19:30:08.839Z,49.13
2022-12-25T19:32:36.834Z,39.65
2022-12-25T19:35:05.438Z,39.97
2022-12-25T19:37:35.181Z,44.08
2022-12-25T19:40:06.410Z,39.22
2022-12-25T19:42:34.297Z,42.33
2022-12-25T19:45:01.876Z,40.88
2022-12-25T19:47:29.689Z,41.30
2022-12-25T19:50:03.912Z,40.95
2022-12-25T19:52:31.865Z,41.13
2022-12-25T19:55:01.487Z,43.25
2022-12-25T19:57:32.038Z,37.38
2022-12-25T19:59:59.748Z,48.63
2022-12-25T20:02:29.922Z,54.03
2022-12-25T20:04:57.668Z,144.23
2022-12-25T20:07:26.657Z,80.28
2022-12-25T20:09:56.312Z,82.88
2022-12-25T20:12:25.537Z,50.95
2022-12-25T20:14:53.265Z,51.95
2022-12-25T20:17:22.693Z,61.88
2022-12-25T20:19:50.529Z,53.97
2022-12-25T20:22:18.284Z,73.25
2022-12-25T20:24:45.881Z,46.22
2022-12-25T20:27:13.670Z,60.15
2022-12-25T20:29:42.892Z,44.80
2022-12-25T20:32:13.983Z,43.40
2022-12-25T20:34:42.393Z,39.33
2022-12-25T20:37:10.149Z,42.67
2022-12-25T20:39:41.189Z,40.03
2022-12-25T20:42:11.305Z,34.92
2022-12-25T20:44:42.275Z,38.78
2022-12-25T20:47:10.099Z,42.70
2022-12-25T20:49:37.725Z,82.63
2022-12-25T20:52:07.450Z,56.05
2022-12-25T20:54:35.628Z,55.95
2022-12-25T20:57:03.413Z,55.10
2022-12-25T20:59:37.127Z,37.90
2022-12-25T21:02:07.185Z,43.45
2022-12-25T21:04:35.361Z,48.30
2022-12-25T21:07:02.996Z,43.72
2022-12-25T21:09:31.557Z,43.88
2022-12-25T21:11:59.340Z,41.95
2022-12-25T21:14:26.913Z,52.97
2022-12-25T21:16:58.288Z,44.50
2022-12-25T21:19:27.482Z,41.63
2022-12-25T21:21:55.239Z,41.60
2022-12-25T21:24:22.798Z,38.03
2022-12-25T21:26:50.675Z,38.08
2022-12-25T21:29:18.450Z,38.88
2022-12-25T21:31:46.008Z,37.53
2022-12-25T21:34:13.673Z,46.70
2022-12-25T21:36:43.189Z,39.17
2022-12-25T21:39:11.625Z,44.45
2022-12-25T21:41:39.599Z,40.55
2022-12-25T21:44:10.573Z,37.78
2022-12-25T21:46:41.557Z,38.92
2022-12-25T21:49:12.330Z,38.67
2022-12-25T21:51:39.949Z,41.25
2022-12-25T21:54:10.184Z,41.35
2022-12-25T21:56:44.486Z,37.63
2022-12-25T21:59:15.271Z,41.60
2022-12-25T22:01:43.513Z,38.03
2022-12-25T22:04:11.962Z,39.25
2022-12-25T22:06:40.248Z,40.50
2022-12-25T22:09:09.616Z,38.38
2022-12-25T22:11:38.234Z,41.42
2022-12-25T22:14:05.960Z,40.88
2022-12-25T22:16:33.674Z,41.72
2022-12-25T22:19:01.288Z,46.53
2022-12-25T22:21:29.097Z,40.50
2022-12-25T22:23:57.201Z,43.03
2022-12-25T22:26:26.240Z,40.95
2022-12-25T22:28:53.984Z,41.35
2022-12-25T22:31:21.910Z,43.75
2022-12-25T22:33:49.531Z,46.88
2022-12-25T22:36:18.125Z,39.17
2022-12-25T22:38:45.889Z,43.97
2022-12-25T22:41:13.486Z,39.50
2022-12-25T22:44:15.955Z,40.20
2022-12-25T22:46:30.694Z,38.17
2022-12-25T22:48:58.467Z,40.35
2022-12-25T22:51:26.085Z,41.35
2022-12-25T22:53:57.422Z,46.00
2022-12-25T22:56:28.247Z,38.47
2022-12-25T22:58:57.555Z,43.15
2022-12-25T23:01:25.218Z,42.33
2022-12-25T23:03:53.781Z,42.03
2022-12-25T23:06:22.017Z,42.17
2022-12-25T23:08:51.687Z,42.80
2022-12-25T23:11:19.835Z,42.78
2022-12-25T23:13:47.721Z,39.50
2022-12-25T23:16:17.714Z,41.10
2022-12-25T23:18:45.447Z,40.60
2022-12-25T23:21:14.483Z,39.22
2022-12-25T23:23:42.070Z,44.92
2022-12-25T23:26:09.800Z,37.83
2022-12-25T23:28:39.339Z,38.67
2022-12-25T23:31:07.490Z,45.65
2022-12-25T23:33:37.951Z,35.90
2022-12-25T23:36:06.434Z,37.85
2022-12-25T23:38:34.039Z,45.88
2022-12-25T23:41:02.147Z,39.10
2022-12-25T23:43:30.425Z,33.72
2022-12-25T23:45:58.015Z,37.60
2022-12-25T23:48:25.875Z,34.53
2022-12-25T23:50:54.944Z,35.35
2022-12-25T23:53:24.098Z,33.15
2022-12-25T23:55:55.860Z,39.80
2022-12-25T23:58:23.780Z,38.03
